Bennington, Minnesota
Current Conditions -  °F | °C
As of 7:54 PM on Sunday 21 Dec 2014 (Local Time) from KRST Reporting Station
Light Rain Light Rain  
Wind Chill: 26°   Ceiling: 500
Heat Index: 37°   Visibility: 7mi
Dew Point: 35°   Wind: 24mph
Humidity: 93%   Direction: 170°S
Pressure: 29.76"   Gusts: 32mph
Location:  43.7143°N, 92.5748°W
Report Text: KRST 220154Z 17021G28KT 7SM -RA OVC005 03/02 A2976 RMK AO2 PK WND 17031/0115 UPE11B27E36RAB11 SLP089 P0002 T00280017
Loading
Personal Weather Stations






























Interactive Weather Map New forecast layout! Learn more

10-Day Weather Forecast

Advertisements
Track Severe Weather on mobile